Flight Track Log - Related Links

Times and Time Zones

All times are in EDT time to prevent confusion due to time zone crossing. See the TAM3376 flight status page for this flight to view local times or setup timezone preferences in your user account.

Time Position Orientation Groundspeed Altitude Reporting Facility
EDT Latitude Longitude Course Direction KTS MPH feet Rate Location/Type
Sat 03:09:00 PM -22.3207 -44.2206 62° Northeast  Level Estimated
Sat 03:10:00 PM -22.2738 -44.1277 61° Northeast  Level Estimated
Sat 03:11:00 PM -22.2267 -44.0348 61° Northeast  Level Estimated
Sat 03:12:00 PM -22.1796 -43.9420 61° Northeast  Level Estimated
Sat 03:13:00 PM -22.1325 -43.8493 61° Northeast  Level Estimated
Sat 03:14:00 PM -22.0853 -43.7566 61° Northeast  Level Estimated
Sat 03:15:00 PM -22.0380 -43.6640 61° Northeast  Level Estimated
Sat 03:16:00 PM -21.9907 -43.5715 61° Northeast  Level Estimated
Sat 03:17:00 PM -21.9434 -43.4790 61° Northeast  Level Estimated
Sat 03:18:00 PM -21.8960 -43.3866 61° Northeast  Level Estimated
Sat 03:19:00 PM -21.8485 -43.2942 61° Northeast  Level Estimated
Sat 03:20:00 PM -21.8010 -43.2020 61° Northeast  Level Estimated
Sat 03:21:00 PM -21.7535 -43.1097 61° Northeast  Level Estimated
Sat 03:22:00 PM -21.7059 -43.0176 61° Northeast  Level Estimated
Sat 03:23:00 PM -21.6582 -42.9254 61° Northeast  Level Estimated
Sat 03:24:00 PM -21.6105 -42.8334 61° Northeast  Level Estimated
Sat 03:25:00 PM -21.5627 -42.7414 61° Northeast  Level Estimated
Sat 03:26:00 PM -21.5149 -42.6495 61° Northeast  Level Estimated
Sat 03:27:00 PM -21.4671 -42.5576 61° Northeast  Level Estimated
Sat 03:28:00 PM -21.4192 -42.4658 61° Northeast  Level Estimated
Sat 03:29:00 PM -21.3712 -42.3740 61° Northeast  Level Estimated
Sat 03:30:00 PM -21.3232 -42.2823 61° Northeast  Level Estimated
Sat 03:31:00 PM -21.2751 -42.1907 61° Northeast  Level Estimated
Sat 03:32:00 PM -21.2270 -42.0992 61° Northeast  Level Estimated
Sat 03:33:00 PM -21.1789 -42.0076 61° Northeast  Level Estimated
Sat 03:34:00 PM -21.1306 -41.9162 61° Northeast  Level Estimated
Sat 03:35:00 PM -21.0824 -41.8248 61° Northeast  Level Estimated
Sat 03:36:00 PM -21.0341 -41.7335 60° Northeast  Level Estimated
Sat 03:37:00 PM -20.9857 -41.6422 60° Northeast  Level Estimated
Sat 03:38:00 PM -20.9373 -41.5510 60° Northeast  Level Estimated
Sat 03:39:00 PM -20.8889 -41.4598 60° Northeast  Level Estimated
Sat 03:40:00 PM -20.8404 -41.3688 60° Northeast  Level Estimated
Sat 03:41:00 PM -20.7918 -41.2777 60° Northeast  Level Estimated
Sat 03:42:00 PM -20.7432 -41.1867 60° Northeast  Level Estimated
Sat 03:43:00 PM -20.6946 -41.0958 60° Northeast  Level Estimated
Sat 03:44:00 PM -20.6459 -41.0050 60° Northeast  Level Estimated
Sat 03:45:00 PM -20.5972 -40.9142 60° Northeast  Level Estimated
Sat 03:46:00 PM -20.5484 -40.8234 60° Northeast  Level Estimated
Sat 03:47:00 PM -20.4995 -40.7327 60° Northeast  Level Estimated
Sat 03:48:00 PM -20.4507 -40.6421 60° Northeast  Level Estimated
Sat 03:49:00 PM -20.4017 -40.5515 60° Northeast  Level Estimated
Sat 03:50:00 PM -20.3528 -40.4610 60° Northeast  Level Estimated
Sat 03:51:00 PM -20.3037 -40.3706 60° Northeast  Level Estimated
Sat 03:52:00 PM -20.2581 -40.2864 60° Northeast  Level Estimated
Sat 03:53:00 PM -20.2581 -40.2864 13° North  Level Estimated
Sat 03:54:00 PM -20.2581 -40.2864 13° North  Level Estimated
Sat 03:55:00 PM -20.2581 -40.2864 13° North  Level Estimated
Sat 03:56:00 PM -20.2581 -40.2864 13° North  Level Estimated
Sat 03:57:00 PM -20.2581 -40.2864 13° North  Level Estimated
Sat 03:58:00 PM -20.2581 -40.2864 13° North  Level Estimated
Sat 03:59:00 PM -20.2581 -40.2864 13° North  Level Estimated
Sat 04:00:00 PM -20.2581 -40.2864 13° North  Level Estimated
Sat 04:01:00 PM -20.2581 -40.2864 13° North  Level Estimated
Sat 04:02:00 PM -20.2581 -40.2864 13° North  Level Estimated
Sat 04:03:00 PM -20.2581 -40.2864 13° North  Level Estimated
Sat 04:04:00 PM -20.2581 -40.2864 13° North  Level Estimated
Sat 04:05:00 PM -20.2581 -40.2864 13° North  Level Estimated
Sat 04:06:00 PM -20.2581 -40.2864 13° North  Level Estimated
Sat 04:07:00 PM -20.2581 -40.2864 13° North  Level Estimated
Sat 04:08:00 PM -20.2581 -40.2864 13° North  Level Estimated

Login

Don't have an account? Register now (free) for customized features, flight alerts, and more!